VTS209 CYXY-PAFA
Flight info
| Callsign | VTS209 |
|---|---|
| Flight time | N/A |
| Altitude | 10000 |
| Route | YXY DCT ORT DCT BIG DCT FAI |
| Aircraft | DC6/M-SDE1FGHIRWXY/S |
Departure
| Time | 2026-04-28 19:37 |
|---|---|
| Airport | Whitehorse / Erik Nielsen International Airport (CYXY) |
Arrival
| Time | N/A |
|---|---|
| Airport | Fairbanks International Airport (PAFA) |
| Time | Latitude | Longitude | Altitude | Speed | Heading |
|---|---|---|---|---|---|
| 2026-04-28 19:04 | 60.71692 | -135.07709 | 2298 ft | 0 kts | 251° |
| 2026-04-28 19:27 | 60.71691 | -135.07716 | 2287 ft | 3 kts | 251° |
| 2026-04-28 19:27 | 60.71691 | -135.07731 | 2302 ft | 1 kts | 279° |
| 2026-04-28 19:27 | 60.71699 | -135.07746 | 2310 ft | 2 kts | 353° |
| 2026-04-28 19:27 | 60.71736 | -135.07719 | 2294 ft | 11 kts | 23° |
| 2026-04-28 19:28 | 60.71819 | -135.07690 | 2292 ft | 11 kts | 342° |
| 2026-04-28 19:28 | 60.71875 | -135.07698 | 2296 ft | 3 kts | 30° |
| 2026-04-28 19:28 | 60.71892 | -135.07663 | 2300 ft | 6 kts | 54° |
| 2026-04-28 19:28 | 60.71922 | -135.07562 | 2291 ft | 10 kts | 62° |
| 2026-04-28 19:29 | 60.71923 | -135.07477 | 2296 ft | 1 kts | 139° |
| 2026-04-28 19:29 | 60.71923 | -135.07476 | 2296 ft | 0 kts | 145° |
| 2026-04-28 19:36 | 60.71844 | -135.07401 | 2293 ft | 41 kts | 158° |
| 2026-04-28 19:36 | 60.71376 | -135.07037 | 2299 ft | 99 kts | 159° |
| 2026-04-28 19:36 | 60.70661 | -135.06473 | 2553 ft | 120 kts | 158° |
| 2026-04-28 19:36 | 60.69870 | -135.05849 | 2917 ft | 122 kts | 159° |
| 2026-04-28 19:37 | 60.69087 | -135.05229 | 3341 ft | 122 kts | 158° |
| 2026-04-28 19:37 | 60.68825 | -135.05026 | 3443 ft | 126 kts | 159° |
| 2026-04-28 19:37 | 60.67203 | -135.03766 | 3711 ft | 150 kts | 158° |
| 2026-04-28 19:37 | 60.66381 | -135.03119 | 4686 ft | 106 kts | 158° |
| 2026-04-28 19:38 | 60.65700 | -135.02556 | 4996 ft | 113 kts | 157° |
| 2026-04-28 19:38 | 60.64906 | -135.01846 | 5103 ft | 134 kts | 157° |
| 2026-04-28 19:38 | 60.64028 | -135.01165 | 5445 ft | 133 kts | 166° |
| 2026-04-28 19:38 | 60.63426 | -135.00988 | 5681 ft | 133 kts | 180° |
| 2026-04-28 19:39 | 60.62489 | -135.01515 | 5829 ft | 148 kts | 205° |
| 2026-04-28 19:39 | 60.61451 | -135.03272 | 6255 ft | 151 kts | 233° |
| 2026-04-28 19:39 | 60.61072 | -135.05414 | 6325 ft | 168 kts | 251° |
| 2026-04-28 19:39 | 60.61045 | -135.07789 | 6547 ft | 173 kts | 276° |
| 2026-04-28 19:40 | 60.61548 | -135.10030 | 6795 ft | 173 kts | 297° |
| 2026-04-28 19:40 | 60.61990 | -135.11341 | 7037 ft | 165 kts | 299° |
| 2026-04-28 19:40 | 60.62664 | -135.13125 | 7372 ft | 159 kts | 305° |
| 2026-04-28 19:40 | 60.63412 | -135.14911 | 7318 ft | 173 kts | 302° |
| 2026-04-28 19:41 | 60.63979 | -135.17171 | 7156 ft | 186 kts | 283° |
| 2026-04-28 19:41 | 60.64364 | -135.19681 | 7374 ft | 182 kts | 282° |
| 2026-04-28 19:41 | 60.64934 | -135.21901 | 7638 ft | 189 kts | 311° |
| 2026-04-28 19:41 | 60.66049 | -135.23442 | 7840 ft | 192 kts | 324° |
| 2026-04-28 19:42 | 60.67178 | -135.24679 | 8381 ft | 175 kts | 329° |
| 2026-04-28 19:42 | 60.68227 | -135.25535 | 9006 ft | 154 kts | 333° |
| 2026-04-28 19:42 | 60.69188 | -135.26195 | 9553 ft | 138 kts | 333° |
| 2026-04-28 19:42 | 60.70070 | -135.26762 | 9968 ft | 130 kts | 333° |
| 2026-04-28 19:43 | 60.70944 | -135.27279 | 10190 ft | 135 kts | 334° |
| 2026-04-28 19:43 | 60.71952 | -135.27937 | 10034 ft | 168 kts | 333° |
| 2026-04-28 19:43 | 60.73120 | -135.28779 | 9988 ft | 185 kts | 333° |
| 2026-04-28 19:43 | 60.74358 | -135.29713 | 10036 ft | 194 kts | 332° |
| 2026-04-28 19:44 | 60.75483 | -135.31091 | 9995 ft | 190 kts | 304° |
| 2026-04-28 19:44 | 60.75881 | -135.33534 | 9993 ft | 181 kts | 265° |
| 2026-04-28 19:44 | 60.75819 | -135.36104 | 10006 ft | 182 kts | 263° |
| 2026-04-28 19:44 | 60.75786 | -135.38720 | 10020 ft | 185 kts | 265° |
| 2026-04-28 19:45 | 60.75812 | -135.41378 | 10042 ft | 188 kts | 268° |
| 2026-04-28 19:45 | 60.75928 | -135.44078 | 10043 ft | 193 kts | 278° |
| 2026-04-28 19:45 | 60.76378 | -135.46660 | 10052 ft | 197 kts | 289° |
| 2026-04-28 19:45 | 60.77000 | -135.49191 | 10047 ft | 200 kts | 295° |
| 2026-04-28 19:46 | 60.77718 | -135.51647 | 10038 ft | 201 kts | 297° |
| 2026-04-28 19:46 | 60.78483 | -135.54052 | 10025 ft | 202 kts | 298° |
| 2026-04-28 19:46 | 60.79310 | -135.56384 | 10015 ft | 203 kts | 303° |
| 2026-04-28 19:46 | 60.80220 | -135.58609 | 10017 ft | 203 kts | 304° |
| 2026-04-28 19:47 | 60.81131 | -135.60825 | 10032 ft | 203 kts | 304° |
| 2026-04-28 19:47 | 60.82043 | -135.63045 | 10033 ft | 203 kts | 303° |
| 2026-04-28 19:47 | 60.82935 | -135.65262 | 10041 ft | 204 kts | 303° |
| 2026-04-28 19:47 | 60.83840 | -135.67510 | 10033 ft | 204 kts | 304° |
| 2026-04-28 19:48 | 60.84757 | -135.69742 | 10046 ft | 204 kts | 304° |
| 2026-04-28 19:48 | 60.85909 | -135.72563 | 10047 ft | 205 kts | 303° |
| 2026-04-28 19:49 | 60.88411 | -135.78737 | 10038 ft | 207 kts | 304° |
| 2026-04-28 19:49 | 60.89332 | -135.81004 | 10041 ft | 206 kts | 303° |
| 2026-04-28 19:49 | 60.90251 | -135.83280 | 10050 ft | 207 kts | 303° |
| 2026-04-28 19:49 | 60.91172 | -135.85552 | 10058 ft | 207 kts | 304° |
| 2026-04-28 19:50 | 60.93023 | -135.90128 | 10056 ft | 208 kts | 303° |
| 2026-04-28 19:50 | 60.93940 | -135.92393 | 10062 ft | 208 kts | 303° |
| 2026-04-28 19:50 | 60.94882 | -135.94712 | 10003 ft | 216 kts | 303° |
| 2026-04-28 19:51 | 60.95860 | -135.97160 | 9993 ft | 225 kts | 303° |
| 2026-04-28 19:51 | 60.96873 | -135.99661 | 9996 ft | 230 kts | 303° |
| 2026-04-28 19:51 | 60.97903 | -136.02208 | 10003 ft | 233 kts | 303° |
| 2026-04-28 19:51 | 60.98944 | -136.04795 | 10017 ft | 236 kts | 303° |
| 2026-04-28 19:52 | 61.00000 | -136.07416 | 10026 ft | 239 kts | 304° |
| 2026-04-28 19:52 | 61.01052 | -136.10028 | 10015 ft | 240 kts | 304° |
| 2026-04-28 19:52 | 61.02122 | -136.12685 | 9959 ft | 240 kts | 304° |
| 2026-04-28 19:52 | 61.03188 | -136.15337 | 9964 ft | 239 kts | 304° |
| 2026-04-28 19:53 | 61.04253 | -136.17981 | 9992 ft | 240 kts | 304° |
| 2026-04-28 19:53 | 61.04772 | -136.19282 | 10001 ft | 240 kts | 303° |
| 2026-04-28 19:54 | 61.05306 | -136.20626 | 10008 ft | 241 kts | 303° |
| 2026-04-28 19:56 | 61.06349 | -136.23242 | 10007 ft | 242 kts | 304° |
| 2026-04-28 19:56 | 61.07436 | -136.25911 | 10008 ft | 243 kts | 304° |
| 2026-04-28 19:56 | 61.07887 | -136.27029 | 10013 ft | 243 kts | 304° |
| 2026-04-28 19:58 | 61.08027 | -136.27380 | 10015 ft | 243 kts | 304° |
| 2026-04-28 19:58 | 61.09100 | -136.30086 | 10013 ft | 243 kts | 304° |
| 2026-04-28 19:58 | 61.10182 | -136.32776 | 9975 ft | 243 kts | 304° |
| 2026-04-28 19:59 | 61.11275 | -136.35459 | 9992 ft | 243 kts | 304° |
| 2026-04-28 19:59 | 61.12354 | -136.38096 | 9998 ft | 243 kts | 304° |
| 2026-04-28 19:59 | 61.13452 | -136.40776 | 9998 ft | 244 kts | 304° |
| 2026-04-28 20:00 | 61.15608 | -136.46000 | 10017 ft | 247 kts | 303° |
| 2026-04-28 20:00 | 61.16733 | -136.48699 | 10014 ft | 248 kts | 303° |
| 2026-04-28 20:00 | 61.17863 | -136.51414 | 10002 ft | 249 kts | 304° |
| 2026-04-28 20:00 | 61.18831 | -136.53742 | 9994 ft | 249 kts | 303° |
| 2026-04-28 20:04 | 61.19722 | -136.55903 | 9998 ft | 249 kts | 302° |
| 2026-04-28 20:04 | 61.20830 | -136.58673 | 9999 ft | 249 kts | 302° |
| 2026-04-28 20:05 | 61.21930 | -136.61463 | 9996 ft | 250 kts | 302° |
| 2026-04-28 20:05 | 61.23032 | -136.64267 | 9995 ft | 250 kts | 302° |
| 2026-04-28 20:05 | 61.24136 | -136.67077 | 10002 ft | 251 kts | 302° |
| 2026-04-28 20:05 | 61.25240 | -136.69889 | 9999 ft | 251 kts | 302° |
| 2026-04-28 20:06 | 61.26331 | -136.72664 | 9994 ft | 252 kts | 302° |
| 2026-04-28 20:06 | 61.27443 | -136.75487 | 9985 ft | 251 kts | 302° |
| 2026-04-28 20:06 | 61.28551 | -136.78303 | 9985 ft | 251 kts | 302° |
| 2026-04-28 20:06 | 61.29659 | -136.81120 | 9984 ft | 252 kts | 302° |
| 2026-04-28 20:07 | 61.30772 | -136.83943 | 9980 ft | 251 kts | 302° |
| 2026-04-28 20:07 | 61.31507 | -136.85805 | 9982 ft | 250 kts | 302° |
| 2026-04-28 20:07 | 61.32972 | -136.89519 | 9988 ft | 250 kts | 302° |
| 2026-04-28 20:07 | 61.34078 | -136.92325 | 10012 ft | 251 kts | 302° |
| 2026-04-28 20:08 | 61.35196 | -136.95150 | 10017 ft | 253 kts | 302° |
| 2026-04-28 20:08 | 61.36322 | -136.98001 | 10007 ft | 254 kts | 302° |
| 2026-04-28 20:08 | 61.37430 | -137.00816 | 9999 ft | 254 kts | 302° |
| 2026-04-28 20:08 | 61.38552 | -137.03665 | 9980 ft | 254 kts | 302° |
| 2026-04-28 20:09 | 61.39675 | -137.06508 | 9975 ft | 254 kts | 302° |
| 2026-04-28 20:09 | 61.40797 | -137.09354 | 9979 ft | 253 kts | 302° |
| 2026-04-28 20:09 | 61.41920 | -137.12200 | 9969 ft | 253 kts | 302° |
| 2026-04-28 20:09 | 61.43041 | -137.15033 | 9943 ft | 252 kts | 302° |
| 2026-04-28 20:10 | 61.44141 | -137.17820 | 9943 ft | 252 kts | 302° |
| 2026-04-28 20:10 | 61.45256 | -137.20655 | 9932 ft | 251 kts | 302° |
| 2026-04-28 20:10 | 61.46369 | -137.23470 | 9935 ft | 251 kts | 302° |
| 2026-04-28 20:10 | 61.47481 | -137.26279 | 9936 ft | 250 kts | 302° |
| 2026-04-28 20:11 | 61.48589 | -137.29090 | 9946 ft | 250 kts | 302° |
| 2026-04-28 20:11 | 61.49697 | -137.31897 | 9940 ft | 250 kts | 302° |
| 2026-04-28 20:11 | 61.50806 | -137.34697 | 9910 ft | 250 kts | 302° |
| 2026-04-28 20:11 | 61.51913 | -137.37496 | 9907 ft | 249 kts | 302° |
| 2026-04-28 20:12 | 61.53006 | -137.40255 | 9923 ft | 249 kts | 302° |
| 2026-04-28 20:12 | 61.54114 | -137.43058 | 9933 ft | 249 kts | 302° |
| 2026-04-28 20:12 | 61.55219 | -137.45867 | 9934 ft | 249 kts | 302° |
| 2026-04-28 20:12 | 61.55950 | -137.47725 | 9925 ft | 249 kts | 302° |
| 2026-04-28 20:13 | 61.57430 | -137.51469 | 9922 ft | 248 kts | 302° |
| 2026-04-28 20:13 | 61.58532 | -137.54257 | 9906 ft | 247 kts | 302° |
| 2026-04-28 20:13 | 61.59629 | -137.57030 | 9910 ft | 247 kts | 302° |
| 2026-04-28 20:13 | 61.60730 | -137.59815 | 9903 ft | 248 kts | 302° |
| 2026-04-28 20:14 | 61.61818 | -137.62569 | 9919 ft | 248 kts | 302° |
| 2026-04-28 20:14 | 61.62924 | -137.65367 | 9935 ft | 249 kts | 302° |
| 2026-04-28 20:14 | 61.64030 | -137.68168 | 9927 ft | 249 kts | 302° |
| 2026-04-28 20:14 | 61.65137 | -137.70973 | 9927 ft | 249 kts | 302° |
| 2026-04-28 20:15 | 61.66245 | -137.73778 | 9935 ft | 249 kts | 302° |
| 2026-04-28 20:15 | 61.67355 | -137.76601 | 9925 ft | 250 kts | 302° |
| 2026-04-28 20:15 | 61.68464 | -137.79417 | 9900 ft | 249 kts | 302° |
| 2026-04-28 20:15 | 61.69575 | -137.82223 | 9912 ft | 249 kts | 302° |
| 2026-04-28 20:16 | 61.70671 | -137.85004 | 9942 ft | 250 kts | 302° |
| 2026-04-28 20:16 | 61.71781 | -137.87837 | 9897 ft | 250 kts | 302° |
| 2026-04-28 20:16 | 61.72893 | -137.90665 | 9903 ft | 250 kts | 302° |
| 2026-04-28 20:16 | 61.74005 | -137.93491 | 9880 ft | 250 kts | 302° |
| 2026-04-28 20:17 | 61.75115 | -137.96305 | 9859 ft | 249 kts | 302° |
| 2026-04-28 20:17 | 61.76221 | -137.99120 | 9837 ft | 248 kts | 302° |
| 2026-04-28 20:17 | 61.77313 | -138.01895 | 9862 ft | 249 kts | 302° |
| 2026-04-28 20:17 | 61.78420 | -138.04709 | 9869 ft | 249 kts | 302° |
| 2026-04-28 20:18 | 61.79531 | -138.07533 | 9867 ft | 249 kts | 302° |
| 2026-04-28 20:18 | 61.80267 | -138.09400 | 9867 ft | 249 kts | 302° |
| 2026-04-28 20:18 | 61.81752 | -138.13189 | 9856 ft | 250 kts | 302° |
| 2026-04-28 20:18 | 61.82861 | -138.16026 | 9899 ft | 251 kts | 302° |
| 2026-04-28 20:19 | 61.83971 | -138.18878 | 9847 ft | 251 kts | 302° |
| 2026-04-28 20:19 | 61.85081 | -138.21723 | 9800 ft | 249 kts | 302° |
| 2026-04-28 20:19 | 61.86171 | -138.24504 | 9846 ft | 248 kts | 302° |
| 2026-04-28 20:19 | 61.87278 | -138.27324 | 9856 ft | 249 kts | 302° |
| 2026-04-28 20:20 | 61.88387 | -138.30150 | 9868 ft | 250 kts | 302° |
| 2026-04-28 20:20 | 61.89500 | -138.32996 | 9874 ft | 251 kts | 303° |
| 2026-04-28 20:20 | 61.90615 | -138.35860 | 9849 ft | 251 kts | 302° |
| 2026-04-28 20:20 | 61.91730 | -138.38718 | 9842 ft | 250 kts | 302° |
| 2026-04-28 20:21 | 61.92831 | -138.41526 | 9855 ft | 250 kts | 302° |
| 2026-04-28 20:21 | 61.93948 | -138.44380 | 9865 ft | 250 kts | 302° |
| 2026-04-28 20:21 | 61.95060 | -138.47232 | 9887 ft | 251 kts | 304° |
| 2026-04-28 20:21 | 61.96171 | -138.50133 | 9877 ft | 255 kts | 305° |
| 2026-04-28 20:22 | 61.97286 | -138.53083 | 9855 ft | 256 kts | 304° |
| 2026-04-28 20:22 | 61.98390 | -138.56010 | 9856 ft | 257 kts | 304° |
| 2026-04-28 20:22 | 61.99508 | -138.58979 | 9867 ft | 258 kts | 304° |
| 2026-04-28 20:22 | 62.00635 | -138.61972 | 9874 ft | 259 kts | 304° |
| 2026-04-28 20:23 | 62.01762 | -138.64969 | 9876 ft | 260 kts | 304° |
| 2026-04-28 20:23 | 62.02894 | -138.67984 | 9844 ft | 259 kts | 304° |
| 2026-04-28 20:23 | 62.04017 | -138.70985 | 9862 ft | 259 kts | 305° |
| 2026-04-28 20:23 | 62.05133 | -138.73956 | 9886 ft | 260 kts | 304° |
| 2026-04-28 20:24 | 62.06267 | -138.76977 | 9903 ft | 261 kts | 304° |
| 2026-04-28 20:24 | 62.07406 | -138.80011 | 9886 ft | 262 kts | 304° |
| 2026-04-28 20:24 | 62.08538 | -138.83045 | 9865 ft | 261 kts | 304° |
| 2026-04-28 20:24 | 62.09671 | -138.86080 | 9874 ft | 261 kts | 304° |
| 2026-04-28 20:25 | 62.10803 | -138.89109 | 9857 ft | 261 kts | 304° |
| 2026-04-28 20:25 | 62.11938 | -138.92137 | 9871 ft | 261 kts | 304° |
| 2026-04-28 20:25 | 62.13060 | -138.95130 | 9873 ft | 261 kts | 304° |
| 2026-04-28 20:25 | 62.14197 | -138.98164 | 9866 ft | 261 kts | 304° |
| 2026-04-28 20:26 | 62.15333 | -139.01205 | 9870 ft | 261 kts | 306° |
| 2026-04-28 20:26 | 62.16464 | -139.04275 | 9874 ft | 263 kts | 306° |
| 2026-04-28 20:26 | 62.17600 | -139.07376 | 9851 ft | 264 kts | 306° |
| 2026-04-28 20:26 | 62.18731 | -139.10474 | 9861 ft | 264 kts | 306° |
| 2026-04-28 20:27 | 62.19850 | -139.13538 | 9850 ft | 265 kts | 306° |
| 2026-04-28 20:27 | 62.20986 | -139.16649 | 9848 ft | 265 kts | 306° |
| 2026-04-28 20:27 | 62.22126 | -139.19771 | 9857 ft | 265 kts | 306° |
| 2026-04-28 20:27 | 62.23261 | -139.22884 | 9853 ft | 265 kts | 306° |
| 2026-04-28 20:28 | 62.24396 | -139.26004 | 9866 ft | 265 kts | 306° |
| 2026-04-28 20:28 | 62.25535 | -139.29133 | 9870 ft | 266 kts | 306° |
| 2026-04-28 20:28 | 62.26674 | -139.32263 | 9856 ft | 266 kts | 306° |
| 2026-04-28 20:28 | 62.27814 | -139.35398 | 9859 ft | 266 kts | 306° |
| 2026-04-28 20:29 | 62.28955 | -139.38532 | 9853 ft | 266 kts | 306° |
| 2026-04-28 20:29 | 62.30081 | -139.41625 | 9854 ft | 266 kts | 306° |
| 2026-04-28 20:29 | 62.31223 | -139.44760 | 9854 ft | 266 kts | 306° |
| 2026-04-28 20:29 | 62.32367 | -139.47898 | 9853 ft | 266 kts | 306° |
| 2026-04-28 20:30 | 62.33510 | -139.51041 | 9863 ft | 266 kts | 306° |
| 2026-04-28 20:30 | 62.34653 | -139.54188 | 9865 ft | 266 kts | 306° |
| 2026-04-28 20:30 | 62.35780 | -139.57287 | 9856 ft | 266 kts | 306° |
| 2026-04-28 20:30 | 62.36923 | -139.60431 | 9857 ft | 266 kts | 306° |
| 2026-04-28 20:31 | 62.38064 | -139.63573 | 9862 ft | 266 kts | 306° |
| 2026-04-28 20:31 | 62.39206 | -139.66718 | 9873 ft | 266 kts | 306° |
| 2026-04-28 20:31 | 62.40350 | -139.69872 | 9879 ft | 267 kts | 306° |
| 2026-04-28 20:31 | 62.41493 | -139.73021 | 9876 ft | 267 kts | 306° |